Shule, China
Current Conditions -  °F | °C
As of 2:00 AM on Saturday 20 Dec 2014 (Local Time) from ZWSH Reporting Station
NA  
Wind Chill: 13°   Ceiling: NA
Heat Index: 19°   Visibility: NA
Dew Point: 12°   Wind: 4mph
Humidity: 74%   Direction: NA
Pressure: 30.3"   Gusts: NA
Location:  39.42°N, 76.1°E
Report Text: ZWSH 191800Z AUTO VRB02MPS //// M07/M11 Q1026
Loading
Personal Weather Stations






























Interactive Weather Map New forecast layout! Learn more

10-Day Weather Forecast

Advertisements
Track Severe Weather on mobile